AUTOTAF.ME 14444 - aviation weather forecast Split

Today civil twilight begin 03:31 UTC, sunrise 04:01 UTC,
transit 10:53 UTC, sunset 17:44 UTC,
civil twilight end 18:15 UTC.

Short forecast Split 9 hr

AUTOTAF.ME 14444 212000Z 2121/2206 VRB02MPS 1000 BR BKN003TCU    
  FM220000 09004MPS 9999 BKN011TCU 
  BECMG 2201/2203 NSC  
  FM220600 09003MPS 9999 VCSH BKN033CB

Long forecast Split 24 hr

AUTOTAF.ME 14444 212000Z 2121/2221 VRB02MPS 1000 BR BKN003TCU TX12/2209Z TN00/2121Z  
  FM220000 09004MPS 9999 BKN011TCU 
  BECMG 2201/2203 BKN161  
  FM220600 09003MPS 9999 VCSH BKN033CB 
  FM220900 14005MPS 9999 -SHRA BKN019CB 
  FM221200 10006MPS 9999 -SHRA BKN011CB 
  BECMG 2213/2215  
   TEMPO 2213/2216 VCTS  
  FM221800 08003MPS 9999 OVC011CB
   TEMPO 2216/2222 -TSRA  
  BECMG 2219/2221 VRB02MPS

Table forecast Split

Time (UTC) miniAUTOTAF 3 hr WX FZLVL
M AGL
ICE TURB T
(deg C)
Td
(deg C)
RH
(%)
QNH
(hPa)
WIND/T
18 12003MPS 9999 VCSH BKN019CB VCSH 1800 10 6 78 1020 ...
22.04.2021
00 09004MPS 9999 BKN011TCU 1950
FBL FL190/FL200
8 6 83 1021 ...
03 08003MPS 9999 BKN161 1800
MOD FL90/FL100
FBL FL170/FL180
8 5 79 1020 ...
06 09003MPS 9999 VCSH BKN033CB VCSH 1800
MOD FL110/FL190
FBL FL90/FL100
MOD FL10/FL20 10 5 69 1020 ...
09 14005MPS 9999 -SHRA BKN019CB -SHRA 1650
MOD FL70/FL150
FBL FL170/FL190
MOD FL10/FL20 MOD SFC/FL30 12 7 71 1021 ...
12 10006MPS 9999 -SHRA BKN011CB -SHRA 1650 SEV FL110/FL120
MOD FL90/FL150
FBL FL170/FL180
MOD FL10/FL20 11 7 75 1020 ...
15 11005MPS 9999 OVC011CB TEMPO VCTS VCTS 1950
MOD FL90/FL120
FBL FL110/FL150
11 9 86 1019 ...
18 08003MPS 9999 OVC011CB TEMPO -TSRA -TSRA 1950
MOD FL90/FL120
10 8 86 1019 ...
21 VRB02MPS 9999 BKN009 OVC010CB TEMPO -TSRA -TSRA 2250
MOD FL90/FL100
FBL FL110/FL150
10 8 88 1019 ...
23.04.2021
00 03003MPS 9999 BKN009 BKN010CB TEMPO -TSRA -TSRA 2100 10 8 88 1018 ...
03 VRB02MPS 9999 -RA BKN011 -RA 2100 10 8 83 1018 ...
06 VRB02MPS 9999 BKN033TCU 2100 11 7 77 1020 ...


Latitude 43.5, longitude 16.3, point altitude 21 m.
Mean area surface altitude 238 m.
Forecasts are updated 02, 08, 14, 20 UTC.

See also (external links):
Area lightning maps Split (lightningmaps.org)
Dynamic forecast maps (ventusky.com)
Ceiling forecast map Split (windy.com)

The forecast is an experimental scientific and technical product and is not a substitute meteorological information provided by official state weather services.
The forecast is intended for personal scientific and educational use by individuals, it should not be used for making important decisions or performing actual aircraft flights.

For official meteorological information, contact the competent state authorities.
You can also purchase verified DWD AUTOTAF forecasts from the German weather service.

© autotaf.me
0.56/8.7